Time;durP1;ratioP1;P1;durP2;ratioP2;P2;SDS_P1;SDS_P2;PMS_P1;PMS_P2;Temp;Humidity;BMP_temperature;BMP_pressure;BME280_temperature;BME280_humidity;BME280_pressure;Samples;Min_cycle;Max_cycle;Signal;HPM_P1;HPM_P2
2022/11/22 00:01:49;;;;;;;16.30;11.37;;;;;;;;;;5071875;28;20557;-45
2022/11/22 00:04:15;;;;;;;13.93;11.70;;;;;;;;;;5071977;28;20954;-44
2022/11/22 00:06:43;;;;;;;14.40;11.57;;;;;;;;;;5072413;28;20524;-44
2022/11/22 00:09:09;;;;;;;13.80;10.83;;;;;;;;;;5071751;28;20509;-44
2022/11/22 00:11:35;;;;;;;15.33;11.30;;;;;;;;;;5072010;28;20426;-44
2022/11/22 00:14:01;;;;;;;14.07;11.13;;;;;;;;;;5071283;28;20487;-44
2022/11/22 00:16:27;;;;;;;15.23;12.07;;;;;;;;;;5071550;28;20499;-44
2022/11/22 00:18:53;;;;;;;13.33;10.93;;;;;;;;;;5071792;28;20430;-45
2022/11/22 00:21:19;;;;;;;15.87;12.20;;;;;;;;;;5071168;28;21275;-45
2022/11/22 00:23:46;;;;;;;14.10;11.47;;;;;;;;;;5072030;28;20476;-45
2022/11/22 00:26:12;;;;;;;17.50;13.07;;;;;;;;;;5071478;28;20474;-44
2022/11/22 00:28:38;;;;;;;15.90;12.07;;;;;;;;;;5071760;28;20847;-45
2022/11/22 00:31:05;;;;;;;17.37;12.47;;;;;;;;;;5071677;28;20977;-44
2022/11/22 00:33:31;;;;;;;16.77;12.43;;;;;;;;;;5071445;28;20438;-44
2022/11/22 00:35:57;;;;;;;14.40;11.50;;;;;;;;;;5071118;28;20437;-44
2022/11/22 00:38:23;;;;;;;16.13;13.07;;;;;;;;;;5070333;28;20423;-44
2022/11/22 00:40:50;;;;;;;16.97;13.30;;;;;;;;;;5071381;28;21052;-45
2022/11/22 00:43:16;;;;;;;18.23;13.13;;;;;;;;;;5071454;28;20434;-45
2022/11/22 00:45:42;;;;;;;18.53;13.63;;;;;;;;;;5071590;28;20464;-44
2022/11/22 00:48:09;;;;;;;21.37;14.80;;;;;;;;;;5071588;28;20469;-44
2022/11/22 00:50:35;;;;;;;21.47;14.50;;;;;;;;;;5066929;28;20454;-46
2022/11/22 00:53:01;;;;;;;21.00;14.67;;;;;;;;;;5071675;28;20440;-45
2022/11/22 00:55:27;;;;;;;23.93;16.03;;;;;;;;;;5071881;28;20525;-44
2022/11/22 00:57:54;;;;;;;23.63;15.90;;;;;;;;;;5071146;28;20430;-44
2022/11/22 01:00:20;;;;;;;23.37;16.10;;;;;;;;;;5071256;28;20568;-44
2022/11/22 01:02:46;;;;;;;24.03;16.53;;;;;;;;;;5071476;28;20836;-45
2022/11/22 01:05:12;;;;;;;27.20;16.80;;;;;;;;;;5071358;28;20445;-45
2022/11/22 01:07:38;;;;;;;26.20;16.67;;;;;;;;;;5071321;28;20513;-45
2022/11/22 01:10:05;;;;;;;24.47;16.30;;;;;;;;;;5071500;28;20442;-45
2022/11/22 01:12:31;;;;;;;28.20;16.43;;;;;;;;;;5071227;28;20456;-45
2022/11/22 01:14:58;;;;;;;29.97;17.67;;;;;;;;;;5071484;28;20940;-45
2022/11/22 01:17:24;;;;;;;30.07;18.23;;;;;;;;;;5071367;28;20503;-45
2022/11/22 01:19:50;;;;;;;25.77;16.90;;;;;;;;;;5071448;28;20430;-46
2022/11/22 01:22:16;;;;;;;30.53;17.10;;;;;;;;;;5073766;28;20979;-46
2022/11/22 01:24:42;;;;;;;26.37;16.30;;;;;;;;;;5075201;28;20528;-46
2022/11/22 01:27:08;;;;;;;25.03;16.13;;;;;;;;;;5074982;28;20449;-45
2022/11/22 01:29:34;;;;;;;30.77;17.70;;;;;;;;;;5074937;28;20989;-46
2022/11/22 01:32:02;;;;;;;31.90;18.23;;;;;;;;;;5074967;28;20438;-45
2022/11/22 01:34:28;;;;;;;34.17;19.60;;;;;;;;;;5074943;28;20438;-45
2022/11/22 01:36:54;;;;;;;30.67;18.10;;;;;;;;;;5074898;28;20445;-46
2022/11/22 01:39:20;;;;;;;29.30;18.23;;;;;;;;;;5074822;28;20487;-45
2022/11/22 01:41:46;;;;;;;27.87;17.23;;;;;;;;;;5074788;28;20531;-45
2022/11/22 01:44:22;;;;;;;32.93;18.03;;;;;;;;;;5074756;28;20832;-45
2022/11/22 01:46:48;;;;;;;34.53;19.93;;;;;;;;;;5074683;28;20945;-45
2022/11/22 01:49:22;;;;;;;34.40;18.40;;;;;;;;;;5074381;28;20561;-46
2022/11/22 01:51:50;;;;;;;33.73;19.57;;;;;;;;;;5074679;28;20499;-46
2022/11/22 01:54:17;;;;;;;33.53;19.47;;;;;;;;;;5074554;28;20512;-45
2022/11/22 01:56:45;;;;;;;30.90;18.73;;;;;;;;;;5073660;28;20488;-45
2022/11/22 01:59:13;;;;;;;32.10;18.60;;;;;;;;;;5074576;28;20541;-45
2022/11/22 02:01:39;;;;;;;37.10;18.97;;;;;;;;;;5074136;28;20477;-45
2022/11/22 02:04:07;;;;;;;32.37;18.70;;;;;;;;;;5074526;28;20464;-46
2022/11/22 02:06:38;;;;;;;38.63;19.93;;;;;;;;;;5074316;28;20454;-45
2022/11/22 02:09:06;;;;;;;34.27;19.10;;;;;;;;;;5074489;28;20994;-45
2022/11/22 02:11:35;;;;;;;35.47;20.50;;;;;;;;;;5072664;28;20441;-45
2022/11/22 02:14:01;;;;;;;33.00;19.27;;;;;;;;;;5074143;28;20473;-46
2022/11/22 02:16:27;;;;;;;34.73;20.60;;;;;;;;;;5074229;28;20445;-46
2022/11/22 02:18:53;;;;;;;35.70;19.10;;;;;;;;;;5074129;28;20437;-45
2022/11/22 02:21:19;;;;;;;35.77;20.63;;;;;;;;;;5073885;28;20839;-45
2022/11/22 02:23:51;;;;;;;31.67;18.87;;;;;;;;;;5074145;28;20437;-45
2022/11/22 02:26:18;;;;;;;36.03;20.03;;;;;;;;;;5073960;28;20515;-45
2022/11/22 02:28:44;;;;;;;37.27;21.00;;;;;;;;;;5073790;28;20587;-45
2022/11/22 02:31:25;;;;;;;39.40;20.87;;;;;;;;;;5074007;28;20480;-45
2022/11/22 02:33:51;;;;;;;41.07;23.00;;;;;;;;;;5073486;28;20520;-45
2022/11/22 02:36:17;;;;;;;36.23;20.13;;;;;;;;;;5073716;28;20521;-45
2022/11/22 02:38:43;;;;;;;38.00;21.33;;;;;;;;;;5073957;28;20462;-45
2022/11/22 02:41:11;;;;;;;38.83;21.23;;;;;;;;;;5073596;28;20618;-45
2022/11/22 02:43:39;;;;;;;38.40;20.63;;;;;;;;;;5073546;28;20444;-45
2022/11/22 02:46:06;;;;;;;33.93;20.50;;;;;;;;;;5073559;28;20440;-45
2022/11/22 02:48:32;;;;;;;34.23;20.40;;;;;;;;;;5073291;28;20460;-45
2022/11/22 02:50:58;;;;;;;39.93;20.77;;;;;;;;;;5073614;28;20464;-45
2022/11/22 02:53:24;;;;;;;34.93;19.93;;;;;;;;;;5073462;28;20476;-45
2022/11/22 02:55:50;;;;;;;38.30;21.07;;;;;;;;;;5073406;28;20441;-45
2022/11/22 02:58:17;;;;;;;34.50;20.30;;;;;;;;;;5073526;28;20429;-45
2022/11/22 03:00:44;;;;;;;37.43;20.83;;;;;;;;;;5073211;28;20485;-45
2022/11/22 03:03:10;;;;;;;42.50;21.10;;;;;;;;;;5073218;28;20481;-45
2022/11/22 03:05:36;;;;;;;35.93;20.40;;;;;;;;;;5072780;28;20483;-46
2022/11/22 03:08:02;;;;;;;35.60;21.07;;;;;;;;;;5072158;28;20466;-45
2022/11/22 03:10:28;;;;;;;34.93;20.77;;;;;;;;;;5073210;28;20438;-45
2022/11/22 03:12:54;;;;;;;33.07;20.40;;;;;;;;;;5073033;28;20437;-45
2022/11/22 03:15:20;;;;;;;36.07;20.57;;;;;;;;;;5072891;28;20876;-45
2022/11/22 03:17:47;;;;;;;34.80;19.67;;;;;;;;;;5072881;28;21005;-45
2022/11/22 03:20:13;;;;;;;35.33;20.43;;;;;;;;;;5072847;28;20846;-45
2022/11/22 03:22:40;;;;;;;36.10;21.07;;;;;;;;;;5072914;28;20442;-45
2022/11/22 03:25:06;;;;;;;36.90;21.00;;;;;;;;;;5072780;28;20434;-45
2022/11/22 03:27:32;;;;;;;37.03;20.70;;;;;;;;;;5072584;28;20434;-45
2022/11/22 03:29:58;;;;;;;34.77;20.47;;;;;;;;;;5072818;28;20434;-45
2022/11/22 03:32:24;;;;;;;35.07;19.10;;;;;;;;;;5072617;28;20786;-45
2022/11/22 03:34:52;;;;;;;36.97;20.77;;;;;;;;;;5072540;28;20932;-45
2022/11/22 03:37:18;;;;;;;39.13;21.77;;;;;;;;;;5072474;28;21011;-45
2022/11/22 03:39:44;;;;;;;35.07;21.03;;;;;;;;;;5071835;28;20532;-46
2022/11/22 03:42:10;;;;;;;37.20;21.70;;;;;;;;;;5072313;28;20497;-45
2022/11/22 03:44:36;;;;;;;35.93;21.43;;;;;;;;;;5071348;28;20460;-45
2022/11/22 03:47:02;;;;;;;34.37;20.53;;;;;;;;;;5072459;28;20444;-45
2022/11/22 03:49:28;;;;;;;34.53;21.97;;;;;;;;;;5072255;28;20469;-45
2022/11/22 03:51:55;;;;;;;35.33;22.30;;;;;;;;;;5072353;28;20509;-45
2022/11/22 03:54:21;;;;;;;37.33;23.07;;;;;;;;;;5072263;28;20487;-45
2022/11/22 03:56:47;;;;;;;41.77;22.97;;;;;;;;;;5072219;28;20429;-45
2022/11/22 03:59:13;;;;;;;36.93;22.13;;;;;;;;;;5072125;28;20536;-44
2022/11/22 04:01:39;;;;;;;39.13;22.77;;;;;;;;;;5072198;28;20569;-44
2022/11/22 04:04:05;;;;;;;39.23;22.70;;;;;;;;;;5072272;28;20435;-46
2022/11/22 04:06:31;;;;;;;40.40;22.67;;;;;;;;;;5071939;28;21110;-45
2022/11/22 04:08:59;;;;;;;34.67;21.77;;;;;;;;;;5072110;28;20692;-46
2022/11/22 04:11:25;;;;;;;34.23;21.53;;;;;;;;;;5071926;28;20983;-46
2022/11/22 04:16:39;;;;;;;36.27;22.00;;;;;;;;;;5072341;28;20546;-45
2022/11/22 04:19:05;;;;;;;36.63;21.80;;;;;;;;;;5071820;28;20449;-45
2022/11/22 04:21:34;;;;;;;38.47;22.37;;;;;;;;;;5071172;28;20895;-45
2022/11/22 04:26:47;;;;;;;39.50;22.90;;;;;;;;;;5071995;28;20774;-46
2022/11/22 04:29:13;;;;;;;37.77;23.27;;;;;;;;;;5072176;28;20466;-45
2022/11/22 04:34:24;;;;;;;38.23;21.83;;;;;;;;;;5071754;28;20944;-45
2022/11/22 04:36:50;;;;;;;39.63;22.93;;;;;;;;;;5071514;28;20962;-45
2022/11/22 04:39:17;;;;;;;37.87;22.63;;;;;;;;;;5071609;28;20443;-45
2022/11/22 04:41:43;;;;;;;40.17;23.17;;;;;;;;;;5071685;28;20499;-45
2022/11/22 04:46:55;;;;;;;38.70;21.77;;;;;;;;;;5071691;28;20443;-45
2022/11/22 04:49:21;;;;;;;40.57;22.73;;;;;;;;;;5071342;28;20492;-45
2022/11/22 04:54:33;;;;;;;40.10;23.30;;;;;;;;;;5071450;28;20420;-46
2022/11/22 04:56:59;;;;;;;40.47;23.30;;;;;;;;;;5073866;28;20537;-45
2022/11/22 04:59:25;;;;;;;38.73;22.97;;;;;;;;;;5075588;28;20505;-46
2022/11/22 05:01:52;;;;;;;38.17;22.83;;;;;;;;;;5075610;28;20477;-45
2022/11/22 05:04:18;;;;;;;39.07;23.60;;;;;;;;;;5075415;28;20444;-45
2022/11/22 05:06:44;;;;;;;34.40;21.40;;;;;;;;;;5075616;28;20434;-46
2022/11/22 05:09:10;;;;;;;36.77;22.00;;;;;;;;;;5075344;28;21027;-46
2022/11/22 05:11:37;;;;;;;38.63;22.03;;;;;;;;;;5075204;28;20438;-45
2022/11/22 05:14:03;;;;;;;38.47;22.40;;;;;;;;;;5075385;28;20528;-46
2022/11/22 05:16:29;;;;;;;37.40;22.47;;;;;;;;;;5075052;28;20882;-46
2022/11/22 05:18:58;;;;;;;39.27;22.80;;;;;;;;;;5075373;28;20433;-46
2022/11/22 05:21:24;;;;;;;38.50;22.03;;;;;;;;;;5075003;28;20469;-47
2022/11/22 05:23:54;;;;;;;34.07;20.53;;;;;;;;;;5075218;28;20422;-46
2022/11/22 05:26:20;;;;;;;36.93;22.03;;;;;;;;;;5075177;28;20779;-45
2022/11/22 05:28:48;;;;;;;39.37;22.50;;;;;;;;;;5075166;28;20468;-45
2022/11/22 05:31:15;;;;;;;39.90;21.57;;;;;;;;;;5075021;28;20438;-46
2022/11/22 05:33:42;;;;;;;36.10;22.60;;;;;;;;;;5074786;28;20425;-46
2022/11/22 05:36:08;;;;;;;40.00;23.23;;;;;;;;;;5074440;28;20442;-45
2022/11/22 05:38:36;;;;;;;40.90;23.83;;;;;;;;;;5073140;28;20440;-46
2022/11/22 05:41:02;;;;;;;38.87;23.73;;;;;;;;;;5074724;28;20466;-46
2022/11/22 05:43:28;;;;;;;41.30;22.23;;;;;;;;;;5074728;28;20444;-46
2022/11/22 05:45:56;;;;;;;38.60;22.07;;;;;;;;;;5074631;28;20430;-46
2022/11/22 05:48:22;;;;;;;38.47;22.87;;;;;;;;;;5074650;28;20541;-46
2022/11/22 05:50:48;;;;;;;39.40;22.97;;;;;;;;;;5073247;28;20536;-46
2022/11/22 05:53:14;;;;;;;36.67;20.70;;;;;;;;;;5073602;28;20430;-48
2022/11/22 05:55:40;;;;;;;38.73;23.67;;;;;;;;;;5073243;28;20484;-46
2022/11/22 05:58:06;;;;;;;37.53;21.33;;;;;;;;;;5073396;28;20446;-46
2022/11/22 06:00:32;;;;;;;31.40;20.30;;;;;;;;;;5073050;28;20444;-46
2022/11/22 06:03:03;;;;;;;31.47;20.37;;;;;;;;;;5073488;28;20452;-46
2022/11/22 06:05:29;;;;;;;32.40;20.07;;;;;;;;;;5073191;28;20971;-46
2022/11/22 06:07:57;;;;;;;36.27;22.07;;;;;;;;;;5072765;28;20432;-46
2022/11/22 06:10:23;;;;;;;31.77;20.37;;;;;;;;;;5073061;28;20931;-45
2022/11/22 06:12:49;;;;;;;28.37;19.47;;;;;;;;;;5072879;28;20916;-45
2022/11/22 06:15:16;;;;;;;29.00;20.03;;;;;;;;;;5072918;28;20951;-45
2022/11/22 06:17:42;;;;;;;26.20;19.13;;;;;;;;;;5073244;28;20495;-45
2022/11/22 06:20:10;;;;;;;29.40;19.97;;;;;;;;;;5072532;28;20921;-46
2022/11/22 06:22:36;;;;;;;30.27;19.90;;;;;;;;;;5072726;28;20894;-45
2022/11/22 06:25:02;;;;;;;31.13;19.43;;;;;;;;;;5072671;28;20928;-45
2022/11/22 06:27:28;;;;;;;29.90;18.80;;;;;;;;;;5072324;28;20434;-45
2022/11/22 06:29:54;;;;;;;30.80;18.93;;;;;;;;;;5073304;28;20433;-45
2022/11/22 06:32:20;;;;;;;30.20;19.20;;;;;;;;;;5073003;28;20422;-45
2022/11/22 06:34:46;;;;;;;27.97;18.37;;;;;;;;;;5073115;28;20198;-45
2022/11/22 06:37:15;;;;;;;28.50;19.50;;;;;;;;;;5072517;28;20825;-45
2022/11/22 06:39:41;;;;;;;29.30;18.47;;;;;;;;;;5072582;28;20952;-45
2022/11/22 06:42:07;;;;;;;32.33;19.93;;;;;;;;;;5072299;28;20487;-46
2022/11/22 06:44:33;;;;;;;30.67;19.60;;;;;;;;;;5072266;28;20290;-46
2022/11/22 06:46:59;;;;;;;26.97;18.40;;;;;;;;;;5071977;28;20492;-46
2022/11/22 06:49:25;;;;;;;26.97;17.93;;;;;;;;;;5031159;28;1153737;-45
2022/11/22 06:51:51;;;;;;;24.93;18.13;;;;;;;;;;5073446;28;20191;-45
2022/11/22 06:54:19;;;;;;;25.73;17.33;;;;;;;;;;5073023;28;20437;-47
2022/11/22 06:56:45;;;;;;;29.47;18.70;;;;;;;;;;5072824;28;20858;-46
2022/11/22 06:59:11;;;;;;;28.00;18.73;;;;;;;;;;5072865;28;20438;-46
2022/11/22 07:01:37;;;;;;;28.57;18.97;;;;;;;;;;5072790;28;21067;-44
2022/11/22 07:04:03;;;;;;;24.20;15.97;;;;;;;;;;5072967;28;20430;-44
2022/11/22 07:06:30;;;;;;;25.07;17.60;;;;;;;;;;5072947;28;20517;-44
2022/11/22 07:08:57;;;;;;;25.30;17.83;;;;;;;;;;5072946;28;20450;-44
2022/11/22 07:11:26;;;;;;;28.93;17.87;;;;;;;;;;5072866;28;20479;-44
2022/11/22 07:13:54;;;;;;;27.47;17.77;;;;;;;;;;5071994;28;20955;-44
2022/11/22 07:16:20;;;;;;;27.73;17.47;;;;;;;;;;5072983;28;20444;-44
2022/11/22 07:18:47;;;;;;;28.33;16.43;;;;;;;;;;5072180;28;20456;-44
2022/11/22 07:21:14;;;;;;;28.43;17.57;;;;;;;;;;5071648;28;20480;-44
2022/11/22 07:23:41;;;;;;;27.77;17.83;;;;;;;;;;5071356;28;20441;-44
2022/11/22 07:26:07;;;;;;;27.53;17.37;;;;;;;;;;5072701;28;20492;-44
2022/11/22 07:28:35;;;;;;;25.67;16.50;;;;;;;;;;5072644;28;20788;-44
2022/11/22 07:31:01;;;;;;;27.07;16.73;;;;;;;;;;5072648;28;20441;-44
2022/11/22 07:33:28;;;;;;;25.37;16.63;;;;;;;;;;5072707;28;20772;-43
2022/11/22 07:35:54;;;;;;;23.20;16.87;;;;;;;;;;5072620;28;20445;-44
2022/11/22 07:38:20;;;;;;;26.23;17.90;;;;;;;;;;5072512;28;21011;-44
2022/11/22 07:40:46;;;;;;;21.60;16.13;;;;;;;;;;5071815;28;20457;-43
2022/11/22 07:43:12;;;;;;;24.60;16.60;;;;;;;;;;5071655;28;20499;-43
2022/11/22 07:45:39;;;;;;;27.80;18.50;;;;;;;;;;5071470;28;20790;-43
2022/11/22 07:48:06;;;;;;;26.67;17.17;;;;;;;;;;5072127;28;20450;-43
2022/11/22 07:50:33;;;;;;;27.47;16.23;;;;;;;;;;5071690;28;20917;-43
2022/11/22 07:52:59;;;;;;;25.03;17.50;;;;;;;;;;5071711;28;20437;-43
2022/11/22 07:55:26;;;;;;;25.10;16.90;;;;;;;;;;5071648;28;20429;-43
2022/11/22 07:57:52;;;;;;;26.57;17.27;;;;;;;;;;5071442;28;20487;-45
2022/11/22 08:00:19;;;;;;;26.30;17.53;;;;;;;;;;5071149;28;20452;-44
2022/11/22 08:02:46;;;;;;;23.87;17.13;;;;;;;;;;5071785;28;20473;-44
2022/11/22 08:05:12;;;;;;;27.33;17.60;;;;;;;;;;5071953;28;20537;-44
2022/11/22 08:07:38;;;;;;;22.87;17.33;;;;;;;;;;5071975;28;20438;-43
2022/11/22 08:10:05;;;;;;;27.80;17.37;;;;;;;;;;5071687;28;20434;-43
2022/11/22 08:12:31;;;;;;;26.83;16.93;;;;;;;;;;5071249;28;20469;-43
2022/11/22 08:14:57;;;;;;;25.67;16.80;;;;;;;;;;5071962;28;20457;-43
2022/11/22 08:17:23;;;;;;;23.33;16.20;;;;;;;;;;5071710;28;20445;-44
2022/11/22 08:19:52;;;;;;;25.03;16.27;;;;;;;;;;5071424;28;21177;-44
2022/11/22 08:22:18;;;;;;;23.67;15.90;;;;;;;;;;5071426;28;20557;-44
2022/11/22 08:24:44;;;;;;;23.30;14.93;;;;;;;;;;5071081;28;20441;-44
2022/11/22 08:27:10;;;;;;;22.80;16.23;;;;;;;;;;5071746;28;20483;-44
2022/11/22 08:29:36;;;;;;;23.10;15.93;;;;;;;;;;5071098;28;20438;-44
2022/11/22 08:32:02;;;;;;;20.53;15.77;;;;;;;;;;5070727;28;20533;-44
2022/11/22 08:34:28;;;;;;;22.10;16.13;;;;;;;;;;5070220;28;20916;-44
2022/11/22 08:36:55;;;;;;;21.10;15.50;;;;;;;;;;5071401;28;20503;-44
2022/11/22 08:39:22;;;;;;;23.20;16.00;;;;;;;;;;5071855;28;20482;-44
2022/11/22 08:41:48;;;;;;;19.00;14.67;;;;;;;;;;5071122;28;20478;-44
2022/11/22 08:44:14;;;;;;;20.47;16.57;;;;;;;;;;5071811;28;20473;-44
2022/11/22 08:46:40;;;;;;;23.77;15.30;;;;;;;;;;5070851;28;20438;-44
2022/11/22 08:49:06;;;;;;;18.70;14.70;;;;;;;;;;5071395;28;20517;-44
2022/11/22 08:51:33;;;;;;;19.93;14.00;;;;;;;;;;5071032;28;20442;-44
2022/11/22 08:54:00;;;;;;;20.47;14.07;;;;;;;;;;5071278;28;20491;-44
2022/11/22 08:56:27;;;;;;;18.20;13.93;;;;;;;;;;5070403;28;20537;-44
2022/11/22 08:58:53;;;;;;;22.50;13.40;;;;;;;;;;5071602;28;20436;-44
2022/11/22 09:01:20;;;;;;;18.37;13.90;;;;;;;;;;5071339;28;20486;-44
2022/11/22 09:03:46;;;;;;;20.17;13.20;;;;;;;;;;5071342;28;20425;-45
2022/11/22 09:06:13;;;;;;;19.30;14.17;;;;;;;;;;5071289;28;20491;-45
2022/11/22 09:08:39;;;;;;;20.50;13.30;;;;;;;;;;5070869;28;20470;-46
2022/11/22 09:11:07;;;;;;;18.30;14.03;;;;;;;;;;5070130;28;21007;-45
2022/11/22 09:13:34;;;;;;;17.13;13.23;;;;;;;;;;5070240;28;20449;-44
2022/11/22 09:16:03;;;;;;;17.77;13.13;;;;;;;;;;5071314;28;20860;-43
2022/11/22 09:18:29;;;;;;;16.77;13.47;;;;;;;;;;5070425;28;20869;-45
2022/11/22 09:20:57;;;;;;;18.43;13.10;;;;;;;;;;5071074;28;20787;-44
2022/11/22 09:23:23;;;;;;;16.87;13.13;;;;;;;;;;5071125;28;20434;-44
2022/11/22 09:25:56;;;;;;;19.50;12.87;;;;;;;;;;5070935;28;20430;-44
2022/11/22 09:28:23;;;;;;;15.33;12.07;;;;;;;;;;5071195;28;20491;-45
2022/11/22 09:30:49;;;;;;;15.67;11.67;;;;;;;;;;5070900;28;20519;-43
2022/11/22 09:33:15;;;;;;;15.60;11.67;;;;;;;;;;5070985;28;20924;-43
2022/11/22 09:35:41;;;;;;;12.97;10.43;;;;;;;;;;5071042;28;20805;-43
2022/11/22 09:38:07;;;;;;;16.23;10.20;;;;;;;;;;5070661;28;20931;-43
2022/11/22 09:40:35;;;;;;;13.23;9.70;;;;;;;;;;5071106;28;20808;-43
2022/11/22 09:43:16;;;;;;;12.83;10.20;;;;;;;;;;5072337;28;20505;-43
2022/11/22 09:46:00;;;;;;;12.00;9.57;;;;;;;;;;5074256;28;20430;-43
2022/11/22 09:48:41;;;;;;;15.83;11.37;;;;;;;;;;5074126;28;20449;-43
2022/11/22 09:51:09;;;;;;;10.73;9.00;;;;;;;;;;5074194;28;20433;-43
2022/11/22 09:53:37;;;;;;;12.33;9.70;;;;;;;;;;5074121;28;20453;-43
2022/11/22 09:56:07;;;;;;;11.67;9.33;;;;;;;;;;5073935;28;20433;-43
2022/11/22 09:58:37;;;;;;;11.20;9.77;;;;;;;;;;5074190;28;20433;-43
2022/11/22 10:01:08;;;;;;;11.53;8.87;;;;;;;;;;5073916;28;20445;-43
2022/11/22 10:03:40;;;;;;;11.87;9.40;;;;;;;;;;5074029;28;20449;-43
2022/11/22 10:06:07;;;;;;;13.83;9.43;;;;;;;;;;5074464;28;20562;-43
2022/11/22 10:08:36;;;;;;;9.77;8.77;;;;;;;;;;5073906;28;20473;-43
2022/11/22 10:11:04;;;;;;;9.40;7.70;;;;;;;;;;5073996;28;20465;-43
2022/11/22 10:13:33;;;;;;;7.73;6.97;;;;;;;;;;5073849;28;20528;-43
2022/11/22 10:16:03;;;;;;;8.03;6.63;;;;;;;;;;5074024;28;20662;-43
2022/11/22 10:18:38;;;;;;;6.60;5.70;;;;;;;;;;5073751;28;20594;-43
2022/11/22 10:21:04;;;;;;;7.33;5.80;;;;;;;;;;5074059;28;20413;-44
2022/11/22 10:23:31;;;;;;;6.27;5.60;;;;;;;;;;5074357;28;20246;-43
2022/11/22 10:25:58;;;;;;;6.10;5.50;;;;;;;;;;5072039;28;20198;-43
2022/11/22 10:28:30;;;;;;;7.37;5.83;;;;;;;;;;5074175;28;20202;-43
2022/11/22 10:31:00;;;;;;;6.70;5.50;;;;;;;;;;5074395;28;20235;-43
2022/11/22 10:33:29;;;;;;;6.20;5.20;;;;;;;;;;5074335;28;20282;-44
2022/11/22 10:36:02;;;;;;;6.93;5.33;;;;;;;;;;5074539;28;20191;-44
2022/11/22 10:38:35;;;;;;;7.00;5.40;;;;;;;;;;5074254;28;20204;-44
2022/11/22 10:41:04;;;;;;;6.13;4.83;;;;;;;;;;5073737;28;20245;-44
2022/11/22 10:43:35;;;;;;;6.70;5.20;;;;;;;;;;5071742;28;20287;-43
2022/11/22 10:46:06;;;;;;;5.77;4.93;;;;;;;;;;5073237;28;20195;-44
2022/11/22 10:48:34;;;;;;;6.57;5.40;;;;;;;;;;5071249;28;20200;-44
2022/11/22 10:51:04;;;;;;;6.13;4.83;;;;;;;;;;5073855;28;20577;-44
2022/11/22 10:53:38;;;;;;;5.43;4.63;;;;;;;;;;5072840;28;20200;-44
2022/11/22 10:56:08;;;;;;;5.80;5.20;;;;;;;;;;5073937;28;20269;-44
2022/11/22 10:58:39;;;;;;;5.70;4.17;;;;;;;;;;5073780;28;20203;-44
2022/11/22 11:01:11;;;;;;;5.43;4.93;;;;;;;;;;5073688;28;20646;-44
2022/11/22 11:03:39;;;;;;;7.27;5.30;;;;;;;;;;5073480;28;20235;-44
2022/11/22 11:06:09;;;;;;;7.30;4.40;;;;;;;;;;5073690;28;20828;-44
2022/11/22 11:08:37;;;;;;;5.23;4.30;;;;;;;;;;5072785;28;20582;-44
2022/11/22 11:11:04;;;;;;;4.93;4.43;;;;;;;;;;5071847;28;20203;-44
2022/11/22 11:13:32;;;;;;;6.63;4.90;;;;;;;;;;5072730;28;20183;-44
2022/11/22 11:16:00;;;;;;;7.77;5.07;;;;;;;;;;5072639;28;20210;-44
2022/11/22 11:18:30;;;;;;;5.40;4.80;;;;;;;;;;5072495;28;20324;-44
2022/11/22 11:20:56;;;;;;;12.33;5.70;;;;;;;;;;5072801;28;20725;-44
2022/11/22 11:23:23;;;;;;;6.03;4.87;;;;;;;;;;5072585;28;20690;-45
2022/11/22 11:25:51;;;;;;;6.67;4.77;;;;;;;;;;5072697;28;20207;-44
2022/11/22 11:28:19;;;;;;;5.97;4.30;;;;;;;;;;5072823;28;20223;-45
2022/11/22 11:30:46;;;;;;;8.03;4.83;;;;;;;;;;5072643;28;20282;-45
2022/11/22 11:33:20;;;;;;;6.83;4.60;;;;;;;;;;5072657;28;20192;-45
2022/11/22 11:35:46;;;;;;;5.80;4.60;;;;;;;;;;5072513;28;20658;-44
2022/11/22 11:38:33;;;;;;;5.33;4.60;;;;;;;;;;5072642;28;20212;-44
2022/11/22 11:41:15;;;;;;;5.00;4.50;;;;;;;;;;5072159;28;20286;-44
2022/11/22 11:43:42;;;;;;;6.07;4.63;;;;;;;;;;5072445;28;20211;-44
2022/11/22 11:46:14;;;;;;;5.73;4.00;;;;;;;;;;5072627;28;20206;-44
2022/11/22 11:48:42;;;;;;;7.53;4.40;;;;;;;;;;5072152;28;20257;-43
2022/11/22 11:51:12;;;;;;;5.07;4.40;;;;;;;;;;5072501;28;20210;-44
2022/11/22 11:53:40;;;;;;;5.57;4.37;;;;;;;;;;5072112;28;20192;-45
2022/11/22 11:56:28;;;;;;;6.43;4.47;;;;;;;;;;5071496;28;20956;-44
2022/11/22 11:58:55;;;;;;;5.50;4.43;;;;;;;;;;5071251;28;20654;-44
2022/11/22 12:01:21;;;;;;;6.53;4.80;;;;;;;;;;5072165;28;20227;-44
2022/11/22 12:03:51;;;;;;;5.47;4.53;;;;;;;;;;5072157;28;20227;-44
2022/11/22 12:06:17;;;;;;;4.60;4.10;;;;;;;;;;5071896;28;20612;-44
2022/11/22 12:08:45;;;;;;;7.37;4.50;;;;;;;;;;5071655;28;20358;-44
2022/11/22 12:11:13;;;;;;;4.60;4.07;;;;;;;;;;5071918;28;20203;-44
2022/11/22 12:13:41;;;;;;;6.40;4.30;;;;;;;;;;5071093;28;20200;-44
2022/11/22 12:16:13;;;;;;;4.80;4.40;;;;;;;;;;5071903;28;20290;-44
2022/11/22 12:18:43;;;;;;;6.30;4.57;;;;;;;;;;5072134;28;20267;-44
2022/11/22 12:21:15;;;;;;;9.60;4.30;;;;;;;;;;5070336;28;20196;-44
2022/11/22 12:23:45;;;;;;;4.47;3.80;;;;;;;;;;5070491;28;20628;-43
2022/11/22 12:26:13;;;;;;;6.77;3.83;;;;;;;;;;5070663;28;20187;-44
2022/11/22 12:28:39;;;;;;;7.07;3.80;;;;;;;;;;5071510;28;20745;-44
2022/11/22 12:31:08;;;;;;;4.47;3.97;;;;;;;;;;5072152;28;20727;-45
2022/11/22 12:33:36;;;;;;;5.60;4.10;;;;;;;;;;5071170;28;20353;-45
2022/11/22 12:36:03;;;;;;;5.03;3.87;;;;;;;;;;5071322;28;20214;-43
2022/11/22 12:38:31;;;;;;;5.63;4.17;;;;;;;;;;5071580;28;20211;-51
2022/11/22 12:41:00;;;;;;;7.33;4.17;;;;;;;;;;5071703;28;20206;-45
2022/11/22 12:43:30;;;;;;;5.33;3.90;;;;;;;;;;5071829;28;20789;-44
2022/11/22 12:45:57;;;;;;;8.27;3.90;;;;;;;;;;5071867;28;20215;-45
2022/11/22 12:48:27;;;;;;;6.37;3.67;;;;;;;;;;5071732;28;20615;-44
2022/11/22 12:50:54;;;;;;;6.03;3.77;;;;;;;;;;5071467;28;20775;-45
2022/11/22 12:53:22;;;;;;;6.17;4.10;;;;;;;;;;5071673;28;20235;-44
2022/11/22 12:55:50;;;;;;;5.33;4.33;;;;;;;;;;5071201;28;20286;-45
2022/11/22 12:58:18;;;;;;;6.20;4.63;;;;;;;;;;5071415;28;20195;-45
2022/11/22 13:00:51;;;;;;;6.33;4.27;;;;;;;;;;5071393;28;20246;-44
2022/11/22 13:03:20;;;;;;;7.43;4.07;;;;;;;;;;5071448;28;20272;-44
2022/11/22 13:05:48;;;;;;;5.33;4.30;;;;;;;;;;5071315;28;20191;-44
2022/11/22 13:08:16;;;;;;;8.17;4.23;;;;;;;;;;5071420;28;20586;-45
2022/11/22 13:10:44;;;;;;;6.30;3.77;;;;;;;;;;5070790;28;20192;-45
2022/11/22 13:13:17;;;;;;;7.40;3.80;;;;;;;;;;5071480;28;20287;-45
2022/11/22 13:15:44;;;;;;;8.53;4.33;;;;;;;;;;5071348;28;20646;-44
2022/11/22 13:18:14;;;;;;;5.50;3.80;;;;;;;;;;5073599;28;20697;-44
2022/11/22 13:20:43;;;;;;;7.03;3.67;;;;;;;;;;5074140;28;20211;-45
2022/11/22 13:23:19;;;;;;;7.97;4.07;;;;;;;;;;5074977;28;20314;-44
2022/11/22 13:25:48;;;;;;;7.53;3.70;;;;;;;;;;5074881;28;20310;-44
2022/11/22 13:28:15;;;;;;;6.60;3.43;;;;;;;;;;5074983;28;20737;-43
2022/11/22 13:31:02;;;;;;;5.83;3.30;;;;;;;;;;5075174;28;20547;-44
2022/11/22 13:33:29;;;;;;;7.10;3.23;;;;;;;;;;5075153;28;20572;-44
2022/11/22 13:36:10;;;;;;;7.57;3.50;;;;;;;;;;5074752;28;20272;-43
2022/11/22 13:38:37;;;;;;;4.00;3.13;;;;;;;;;;5074797;28;20214;-44
2022/11/22 13:41:19;;;;;;;5.57;3.00;;;;;;;;;;5074754;28;20203;-43
2022/11/22 13:43:53;;;;;;;8.03;3.30;;;;;;;;;;5074805;28;20712;-44
2022/11/22 13:46:38;;;;;;;6.17;3.63;;;;;;;;;;5074822;28;20195;-43
2022/11/22 13:49:13;;;;;;;4.77;3.43;;;;;;;;;;5074499;28;20749;-43
2022/11/22 13:51:52;;;;;;;4.50;2.87;;;;;;;;;;5074685;28;20187;-43
2022/11/22 13:54:39;;;;;;;5.97;3.03;;;;;;;;;;5074541;28;20195;-44
2022/11/22 13:57:06;;;;;;;6.63;2.97;;;;;;;;;;5074340;28;20308;-44
2022/11/22 13:59:32;;;;;;;4.57;3.00;;;;;;;;;;5074695;28;20195;-44
2022/11/22 14:01:59;;;;;;;5.60;2.70;;;;;;;;;;5074281;28;20591;-44
2022/11/22 14:04:38;;;;;;;4.93;2.67;;;;;;;;;;5074189;28;20651;-44
2022/11/22 14:07:05;;;;;;;3.70;2.70;;;;;;;;;;5074128;28;20211;-44
2022/11/22 14:09:33;;;;;;;4.57;2.53;;;;;;;;;;5073874;28;20227;-45
2022/11/22 14:12:09;;;;;;;6.87;2.63;;;;;;;;;;5073962;28;20203;-44
2022/11/22 14:14:39;;;;;;;9.10;2.90;;;;;;;;;;5073977;28;20199;-45
2022/11/22 14:17:10;;;;;;;6.43;2.80;;;;;;;;;;5073822;28;20665;-44
2022/11/22 14:19:46;;;;;;;6.17;3.03;;;;;;;;;;5073746;28;20195;-44
2022/11/22 14:22:23;;;;;;;4.00;2.67;;;;;;;;;;5073657;28;20260;-44
2022/11/22 14:24:56;;;;;;;8.70;3.43;;;;;;;;;;5073810;28;20195;-44
2022/11/22 14:27:28;;;;;;;6.47;3.53;;;;;;;;;;5073539;28;20204;-44
2022/11/22 14:30:01;;;;;;;5.80;2.67;;;;;;;;;;5073114;28;20195;-44
2022/11/22 14:32:39;;;;;;;7.57;3.43;;;;;;;;;;5073445;28;20207;-44
2022/11/22 14:35:16;;;;;;;7.77;3.27;;;;;;;;;;5072876;28;20231;-44
2022/11/22 14:37:44;;;;;;;7.40;3.23;;;;;;;;;;5073785;28;20560;-44
2022/11/22 14:40:14;;;;;;;8.73;3.00;;;;;;;;;;5073715;28;20223;-44
2022/11/22 14:42:50;;;;;;;7.27;3.80;;;;;;;;;;5072880;28;20253;-43
2022/11/22 14:45:19;;;;;;;5.90;3.03;;;;;;;;;;5073876;28;20620;-44